Euro Squall — VSZP7 — position and weather

sailwx.info

Track history (hours):
 
Tides and Currents Weather Stations Pressure Air Temp Water Temp Dewpoint Dewpoint Depression Visibility Wind Speed Wind Dir Waves Ship Positions

Euro Squall

Last reported at 2018-Jun-17 21:54 UTC. Time now 2018-Jun-18 15:31 UTC.
Position N 41°15' W 008°49'.

Length 133 m; draft 5.6 m.

Type: Cargo ship. MMSI: 235480000.

Date/timePositionNaut miles runAvg speedWind from/ knotsBaromVisibWave heightAir tempDewpointWater temp
2018-Jun-17 21:54N 41°15' W 008°49'411.1
2018-Jun-17 21:30N 41°12' W 008°46'3 6.2
2018-Jun-17 21:00N 41°11' W 008°42'1 2.0
2018-Jun-17 20:29N 41°12' W 008°41'0 0.0
2018-Jun-17 19:59N 41°12' W 008°41'0 0.0
2018-Jun-17 19:29N 41°12' W 008°41'0 0.0
2018-Jun-17 18:59N 41°12' W 008°41'0 0.0
2018-Jun-17 18:29N 41°12' W 008°41'0 0.0
2018-Jun-17 17:59N 41°12' W 008°41'0 0.0
2018-Jun-17 17:29N 41°12' W 008°41'0 0.0
2018-Jun-17 16:59N 41°12' W 008°41'0 0.0
2018-Jun-17 16:29N 41°12' W 008°41'0 0.0
2018-Jun-17 15:59N 41°12' W 008°41'0 0.0
2018-Jun-17 15:29N 41°12' W 008°41'0 0.0
2018-Jun-17 14:59N 41°12' W 008°41'0 0.0
2018-Jun-17 14:29N 41°12' W 008°41'0 0.0
2018-Jun-17 13:59N 41°12' W 008°41'0 0.0
2018-Jun-17 13:29N 41°12' W 008°41'0 0.0
2018-Jun-17 12:59N 41°12' W 008°41'0 0.0
2018-Jun-17 12:29N 41°12' W 008°41'0 0.0
2018-Jun-17 11:59N 41°12' W 008°41'0 0.0
2018-Jun-17 11:29N 41°12' W 008°41'0 0.0
2018-Jun-17 10:59N 41°12' W 008°41'0 0.0
2018-Jun-17 10:29N 41°12' W 008°41'0 0.0
2018-Jun-17 09:59N 41°12' W 008°41'0 0.0
2018-Jun-17 09:29N 41°12' W 008°41'0 0.0
2018-Jun-17 08:59N 41°12' W 008°41'0 0.0
2018-Jun-17 08:29N 41°12' W 008°41'0 0.0
2018-Jun-17 07:59N 41°12' W 008°41'0 0.0
2018-Jun-17 07:29N 41°12' W 008°41'0 0.0
2018-Jun-17 06:59N 41°12' W 008°41'0 0.0
2018-Jun-17 06:29N 41°12' W 008°41'0 0.0
2018-Jun-17 05:59N 41°12' W 008°41'0 0.0
2018-Jun-17 05:29N 41°12' W 008°41'0 0.0
2018-Jun-17 04:59N 41°12' W 008°41'0 0.0
2018-Jun-17 04:29N 41°12' W 008°41'0 0.0
2018-Jun-17 03:59N 41°12' W 008°41'0 0.0
2018-Jun-17 03:29N 41°12' W 008°41'0 0.0
2018-Jun-17 02:59N 41°12' W 008°41'0 0.0
2018-Jun-17 02:29N 41°12' W 008°41'0 0.0
2018-Jun-17 01:59N 41°12' W 008°41'0 0.0
2018-Jun-17 01:29N 41°12' W 008°41'0 0.0
2018-Jun-17 00:59N 41°12' W 008°41'0 0.0
2018-Jun-17 00:29N 41°12' W 008°41'0 0.0
2018-Jun-16 23:59N 41°12' W 008°41'0 0.0
2018-Jun-16 23:29N 41°12' W 008°41'0 0.0
2018-Jun-16 22:59N 41°12' W 008°41'0 0.0
2018-Jun-16 22:29N 41°12' W 008°41'0 0.0
2018-Jun-16 21:59N 41°12' W 008°41'0 0.0
2018-Jun-16 21:29N 41°12' W 008°41'0 0.0
2018-Jun-16 20:59N 41°12' W 008°41'0 0.0
2018-Jun-16 20:26N 41°12' W 008°41'0 0.0
2018-Jun-16 19:59N 41°12' W 008°41'0 0.0
2018-Jun-16 19:29N 41°12' W 008°41'0 0.0
2018-Jun-16 18:59N 41°12' W 008°41'0 0.0
2018-Jun-16 18:29N 41°12' W 008°41'0 0.0
2018-Jun-16 17:59N 41°12' W 008°41'0 0.0
2018-Jun-16 17:29N 41°12' W 008°41'0 0.0
2018-Jun-16 16:59N 41°12' W 008°41'0 0.0
2018-Jun-16 16:29N 41°12' W 008°41'0 0.0
2018-Jun-16 15:59N 41°12' W 008°41'0 0.0
2018-Jun-16 15:29N 41°12' W 008°41'0 0.0
2018-Jun-16 14:59N 41°12' W 008°41'0 0.0
2018-Jun-16 14:29N 41°12' W 008°41'0 0.0
2018-Jun-16 13:59N 41°12' W 008°41'0 0.0
2018-Jun-16 13:29N 41°12' W 008°41'0 0.0
2018-Jun-16 13:00N 41°12' W 008°41'1 1.1
2018-Jun-16 12:30N 41°11' W 008°42'3 5.5
2018-Jun-16 12:00N 41°09' W 008°43'3 6.5
2018-Jun-16 11:31N 41°06' W 008°45'105 3.1
2018-Jun-15 01:19N 39°30' W 009°42'410.7
2018-Jun-15 00:54N 39°26' W 009°44'410.8
2018-Jun-15 00:30N 39°22' W 009°44'611.4
2018-Jun-15 00:00N 39°16' W 009°45'611.7
2018-Jun-14 23:30N 39°10' W 009°47'611.5
2018-Jun-14 23:00N 39°04' W 009°48'612.1
2018-Jun-14 22:30N 38°58' W 009°49'612.3
2018-Jun-14 22:00N 38°52' W 009°50'612.3
2018-Jun-14 21:30N 38°46' W 009°50'612.1
2018-Jun-14 21:00N 38°40' W 009°49'612.1
2018-Jun-14 20:30N 38°34' W 009°48'611.5
2018-Jun-14 20:00N 38°29' W 009°46'611.5
2018-Jun-14 19:30N 38°23' W 009°44'611.8
2018-Jun-14 19:00N 38°17' W 009°42'611.6
2018-Jun-14 18:30N 38°12' W 009°40'611.9
2018-Jun-14 18:00N 38°06' W 009°38'611.6
2018-Jun-14 17:30N 38°00' W 009°38'611.3
2018-Jun-14 17:00N 37°55' W 009°37'611.3
2018-Jun-14 16:30N 37°49' W 009°35'611.4
2018-Jun-14 16:00N 37°44' W 009°34'611.5
2018-Jun-14 15:30N 37°38' W 009°31'611.5
2018-Jun-14 15:00N 37°33' W 009°29'611.6
2018-Jun-14 14:30N 37°27' W 009°28'711.3
2018-Jun-14 13:56N 37°21' W 009°26'5311.2
2018-Jun-14 09:10N 36°33' W 008°56'512.6
2018-Jun-14 08:44N 36°28' W 008°53'  
2018-Jun-12 03:59N 37°49' W 009°30'715.4
2018-Jun-12 03:30N 37°57' W 009°29'815.4
2018-Jun-12 03:00N 38°04' W 009°28'815.5
2018-Jun-12 02:31N 38°12' W 009°28'714.6
2018-Jun-12 02:00N 38°19' W 009°26'815.4
2018-Jun-12 01:30N 38°27' W 009°25'815.1
2018-Jun-12 01:00N 38°34' W 009°23'714.1
2018-Jun-12 00:30N 38°40' W 009°18'610.8
2018-Jun-11 23:58N 38°41' W 009°11'4 9.5
2018-Jun-11 23:30N 38°44' W 009°06'0 0.2
2018-Jun-11 23:00N 38°44' W 009°06'0 0.0
2018-Jun-11 22:18N 38°44' W 009°06'0 0.0
2018-Jun-11 22:00N 38°44' W 009°06'0 0.0
2018-Jun-11 21:30N 38°44' W 009°06'0 0.0
2018-Jun-11 20:57N 38°44' W 009°06'0 0.0
2018-Jun-11 20:06N 38°44' W 009°06'0 0.0
2018-Jun-11 19:54N 38°44' W 009°06'0 0.0
2018-Jun-11 19:30N 38°44' W 009°06'0 0.7
2018-Jun-11 19:00N 38°43' W 009°07'0 0.0
2018-Jun-11 18:28N 38°43' W 009°07'0 0.0
2018-Jun-11 17:52N 38°43' W 009°07'0 0.0
2018-Jun-11 17:25N 38°43' W 009°07'0 0.0
2018-Jun-11 16:58N 38°43' W 009°07'0 0.0
2018-Jun-11 16:28N 38°43' W 009°07'0 0.0
2018-Jun-11 15:55N 38°43' W 009°07'0 0.0
2018-Jun-11 15:28N 38°43' W 009°07'0 0.0
2018-Jun-11 14:55N 38°43' W 009°07'0 0.0
2018-Jun-11 14:28N 38°43' W 009°07'0 0.0
2018-Jun-11 13:58N 38°43' W 009°07'0 0.0
2018-Jun-11 13:25N 38°43' W 009°07'0 0.0
2018-Jun-11 12:58N 38°43' W 009°07'0 0.0
2018-Jun-11 12:28N 38°43' W 009°07'0 0.0
2018-Jun-11 11:58N 38°43' W 009°07'0 0.0
2018-Jun-11 11:25N 38°43' W 009°07'0 0.0
2018-Jun-11 10:58N 38°43' W 009°07'0 0.0
2018-Jun-11 10:28N 38°43' W 009°07'0 0.0
2018-Jun-11 09:58N 38°43' W 009°07'0 0.0
2018-Jun-11 09:16N 38°43' W 009°07'0 0.0
2018-Jun-11 08:58N 38°43' W 009°07'0 0.0
2018-Jun-11 08:28N 38°43' W 009°07'0 0.0
2018-Jun-11 07:58N 38°43' W 009°07'0 0.0
2018-Jun-11 07:28N 38°43' W 009°07'0 0.0
2018-Jun-11 06:55N 38°43' W 009°07'0 0.0
2018-Jun-11 06:28N 38°43' W 009°07'0 0.0
2018-Jun-11 05:55N 38°43' W 009°07'0 0.0
2018-Jun-11 05:28N 38°43' W 009°07'0 0.0
2018-Jun-11 04:58N 38°43' W 009°07'0 0.0
2018-Jun-11 04:28N 38°43' W 009°07'0 0.0
2018-Jun-11 03:58N 38°43' W 009°07'0 0.0
2018-Jun-11 03:28N 38°43' W 009°07'0 0.0
2018-Jun-11 02:58N 38°43' W 009°07'0 0.0
2018-Jun-11 02:28N 38°43' W 009°07'0 0.1
2018-Jun-11 02:00N 38°43' W 009°07'3 6.9
2018-Jun-11 01:30N 38°41' W 009°10'5 9.4
2018-Jun-11 01:00N 38°41' W 009°16'611.7
2018-Jun-11 00:30N 38°38' W 009°22'714.2
2018-Jun-11 00:00N 38°38' W 009°31'714.7
2018-Jun-10 23:30N 38°40' W 009°40'713.1
2018-Jun-10 23:00N 38°46' W 009°43'714.9
2018-Jun-10 22:30N 38°53' W 009°44'714.8
2018-Jun-10 22:00N 39°01' W 009°44'815.0
2018-Jun-10 21:30N 39°08' W 009°44'715.0
2018-Jun-10 21:00N 39°16' W 009°44'815.1
2018-Jun-10 20:30N 39°23' W 009°44'10614.9
2018-Jun-10 13:25N 41°00' W 008°49'512.6
2018-Jun-10 13:00N 41°05' W 008°46'611.8
2018-Jun-10 12:30N 41°10' W 008°42'2 3.3
2018-Jun-10 11:58N 41°12' W 008°41'0 0.0
2018-Jun-10 11:28N 41°12' W 008°41'0 0.0
2018-Jun-10 10:58N 41°12' W 008°41'0 0.0
2018-Jun-10 10:28N 41°12' W 008°41'0 0.0
2018-Jun-10 09:58N 41°12' W 008°41'0 0.0
2018-Jun-10 09:28N 41°12' W 008°41'0 0.0
2018-Jun-10 08:58N 41°12' W 008°41'0 0.0
2018-Jun-10 08:29N 41°12' W 008°41'0 0.0
2018-Jun-10 08:00N 41°12' W 008°41'0 0.0
2018-Jun-10 07:30N 41°12' W 008°41'0 0.0
2018-Jun-10 07:00N 41°12' W 008°41'0 0.0
2018-Jun-10 06:30N 41°12' W 008°41'0 0.0
2018-Jun-10 06:00N 41°12' W 008°41'0 0.0
2018-Jun-10 05:30N 41°12' W 008°41'0 0.0
2018-Jun-10 04:57N 41°12' W 008°41'0 0.0
2018-Jun-10 04:30N 41°12' W 008°41'0 0.0
2018-Jun-10 04:00N 41°12' W 008°41'0 0.0
2018-Jun-10 03:30N 41°12' W 008°41'0 0.0
2018-Jun-10 03:00N 41°12' W 008°41'0 0.0
2018-Jun-10 02:30N 41°12' W 008°41'0 0.0
2018-Jun-10 02:00N 41°12' W 008°41'0 0.0
2018-Jun-10 01:30N 41°12' W 008°41'0 0.0
2018-Jun-10 01:00N 41°12' W 008°41'0 0.0
2018-Jun-10 00:30N 41°12' W 008°41'0 0.0
2018-Jun-09 23:57N 41°12' W 008°41'0 0.0
2018-Jun-09 23:30N 41°12' W 008°41'0 0.0
2018-Jun-09 23:00N 41°12' W 008°41'0 0.0
2018-Jun-09 22:30N 41°12' W 008°41'0 0.0
2018-Jun-09 22:00N 41°12' W 008°41'0 0.0
2018-Jun-09 21:30N 41°12' W 008°41'0 0.0
2018-Jun-09 21:00N 41°12' W 008°41'0 0.0
2018-Jun-09 20:30N 41°12' W 008°41'0 0.0
2018-Jun-09 20:00N 41°12' W 008°41'1 1.3
2018-Jun-09 19:30N 41°11' W 008°42'2 4.9
2018-Jun-09 19:00N 41°10' W 008°44'1 1.8
2018-Jun-09 18:30N 41°09' W 008°44'4 8.0
2018-Jun-09 18:00N 41°05' W 008°46'99 2.4
2018-Jun-08 01:14N 39°34' W 009°37'310.4
2018-Jun-08 00:57N 39°32' W 009°40'510.5
2018-Jun-08 00:30N 39°29' W 009°43'612.0
2018-Jun-08 00:00N 39°23' W 009°44'611.4
2018-Jun-07 23:30N 39°17' W 009°45'611.4
2018-Jun-07 23:00N 39°11' W 009°46'511.2
2018-Jun-07 22:30N 39°06' W 009°47'510.9
2018-Jun-07 22:00N 39°01' W 009°48'  
Track history (hours):
 
Tides and Currents Weather Stations Pressure Air Temp Water Temp Dewpoint Dewpoint Depression Visibility Wind Speed Wind Dir Waves Ship Positions

Euro Squall

Last reported at 2018-Jun-17 21:54 UTC. Time now 2018-Jun-18 15:31 UTC.
Position N 41°15' W 008°49'.

Length 133 m; draft 5.6 m.

Type: Cargo ship. MMSI: 235480000.

Date/timePositionNaut miles runAvg speedWind from/ knotsBaromVisibWave heightAir tempDewpointWater temp
2018-Jun-17 21:54N 41°15' W 008°49'411.1
2018-Jun-17 21:30N 41°12' W 008°46'3 6.2
2018-Jun-17 21:00N 41°11' W 008°42'1 2.0
2018-Jun-17 20:29N 41°12' W 008°41'0 0.0
2018-Jun-17 19:59N 41°12' W 008°41'0 0.0
2018-Jun-17 19:29N 41°12' W 008°41'0 0.0
2018-Jun-17 18:59N 41°12' W 008°41'0 0.0
2018-Jun-17 18:29N 41°12' W 008°41'0 0.0
2018-Jun-17 17:59N 41°12' W 008°41'0 0.0
2018-Jun-17 17:29N 41°12' W 008°41'0 0.0
2018-Jun-17 16:59N 41°12' W 008°41'0 0.0
2018-Jun-17 16:29N 41°12' W 008°41'0 0.0
2018-Jun-17 15:59N 41°12' W 008°41'0 0.0
2018-Jun-17 15:29N 41°12' W 008°41'0 0.0
2018-Jun-17 14:59N 41°12' W 008°41'0 0.0
2018-Jun-17 14:29N 41°12' W 008°41'0 0.0
2018-Jun-17 13:59N 41°12' W 008°41'0 0.0
2018-Jun-17 13:29N 41°12' W 008°41'0 0.0
2018-Jun-17 12:59N 41°12' W 008°41'0 0.0
2018-Jun-17 12:29N 41°12' W 008°41'0 0.0
2018-Jun-17 11:59N 41°12' W 008°41'0 0.0
2018-Jun-17 11:29N 41°12' W 008°41'0 0.0
2018-Jun-17 10:59N 41°12' W 008°41'0 0.0
2018-Jun-17 10:29N 41°12' W 008°41'0 0.0
2018-Jun-17 09:59N 41°12' W 008°41'0 0.0
2018-Jun-17 09:29N 41°12' W 008°41'0 0.0
2018-Jun-17 08:59N 41°12' W 008°41'0 0.0
2018-Jun-17 08:29N 41°12' W 008°41'0 0.0
2018-Jun-17 07:59N 41°12' W 008°41'0 0.0
2018-Jun-17 07:29N 41°12' W 008°41'0 0.0
2018-Jun-17 06:59N 41°12' W 008°41'0 0.0
2018-Jun-17 06:29N 41°12' W 008°41'0 0.0
2018-Jun-17 05:59N 41°12' W 008°41'0 0.0
2018-Jun-17 05:29N 41°12' W 008°41'0 0.0
2018-Jun-17 04:59N 41°12' W 008°41'0 0.0
2018-Jun-17 04:29N 41°12' W 008°41'0 0.0
2018-Jun-17 03:59N 41°12' W 008°41'0 0.0
2018-Jun-17 03:29N 41°12' W 008°41'0 0.0
2018-Jun-17 02:59N 41°12' W 008°41'0 0.0
2018-Jun-17 02:29N 41°12' W 008°41'0 0.0
2018-Jun-17 01:59N 41°12' W 008°41'0 0.0
2018-Jun-17 01:29N 41°12' W 008°41'0 0.0
2018-Jun-17 00:59N 41°12' W 008°41'0 0.0
2018-Jun-17 00:29N 41°12' W 008°41'0 0.0
2018-Jun-16 23:59N 41°12' W 008°41'0 0.0
2018-Jun-16 23:29N 41°12' W 008°41'0 0.0
2018-Jun-16 22:59N 41°12' W 008°41'0 0.0
2018-Jun-16 22:29N 41°12' W 008°41'0 0.0
2018-Jun-16 21:59N 41°12' W 008°41'0 0.0
2018-Jun-16 21:29N 41°12' W 008°41'0 0.0
2018-Jun-16 20:59N 41°12' W 008°41'0 0.0
2018-Jun-16 20:26N 41°12' W 008°41'0 0.0
2018-Jun-16 19:59N 41°12' W 008°41'0 0.0
2018-Jun-16 19:29N 41°12' W 008°41'0 0.0
2018-Jun-16 18:59N 41°12' W 008°41'0 0.0
2018-Jun-16 18:29N 41°12' W 008°41'0 0.0
2018-Jun-16 17:59N 41°12' W 008°41'0 0.0
2018-Jun-16 17:29N 41°12' W 008°41'0 0.0
2018-Jun-16 16:59N 41°12' W 008°41'0 0.0
2018-Jun-16 16:29N 41°12' W 008°41'0 0.0
2018-Jun-16 15:59N 41°12' W 008°41'0 0.0
2018-Jun-16 15:29N 41°12' W 008°41'0 0.0
2018-Jun-16 14:59N 41°12' W 008°41'0 0.0
2018-Jun-16 14:29N 41°12' W 008°41'0 0.0
2018-Jun-16 13:59N 41°12' W 008°41'0 0.0
2018-Jun-16 13:29N 41°12' W 008°41'0 0.0
2018-Jun-16 13:00N 41°12' W 008°41'1 1.1
2018-Jun-16 12:30N 41°11' W 008°42'3 5.5
2018-Jun-16 12:00N 41°09' W 008°43'3 6.5
2018-Jun-16 11:31N 41°06' W 008°45'105 3.1
2018-Jun-15 01:19N 39°30' W 009°42'410.7
2018-Jun-15 00:54N 39°26' W 009°44'410.8
2018-Jun-15 00:30N 39°22' W 009°44'611.4
2018-Jun-15 00:00N 39°16' W 009°45'611.7
2018-Jun-14 23:30N 39°10' W 009°47'611.5
2018-Jun-14 23:00N 39°04' W 009°48'612.1
2018-Jun-14 22:30N 38°58' W 009°49'612.3
2018-Jun-14 22:00N 38°52' W 009°50'612.3
2018-Jun-14 21:30N 38°46' W 009°50'612.1
2018-Jun-14 21:00N 38°40' W 009°49'612.1
2018-Jun-14 20:30N 38°34' W 009°48'611.5
2018-Jun-14 20:00N 38°29' W 009°46'611.5
2018-Jun-14 19:30N 38°23' W 009°44'611.8
2018-Jun-14 19:00N 38°17' W 009°42'611.6
2018-Jun-14 18:30N 38°12' W 009°40'611.9
2018-Jun-14 18:00N 38°06' W 009°38'611.6
2018-Jun-14 17:30N 38°00' W 009°38'611.3
2018-Jun-14 17:00N 37°55' W 009°37'611.3
2018-Jun-14 16:30N 37°49' W 009°35'611.4
2018-Jun-14 16:00N 37°44' W 009°34'611.5
2018-Jun-14 15:30N 37°38' W 009°31'611.5
2018-Jun-14 15:00N 37°33' W 009°29'611.6
2018-Jun-14 14:30N 37°27' W 009°28'711.3
2018-Jun-14 13:56N 37°21' W 009°26'5311.2
2018-Jun-14 09:10N 36°33' W 008°56'512.6
2018-Jun-14 08:44N 36°28' W 008°53'  
2018-Jun-12 03:59N 37°49' W 009°30'715.4
2018-Jun-12 03:30N 37°57' W 009°29'815.4
2018-Jun-12 03:00N 38°04' W 009°28'815.5
2018-Jun-12 02:31N 38°12' W 009°28'714.6
2018-Jun-12 02:00N 38°19' W 009°26'815.4
2018-Jun-12 01:30N 38°27' W 009°25'815.1
2018-Jun-12 01:00N 38°34' W 009°23'714.1
2018-Jun-12 00:30N 38°40' W 009°18'610.8
2018-Jun-11 23:58N 38°41' W 009°11'4 9.5
2018-Jun-11 23:30N 38°44' W 009°06'0 0.2
2018-Jun-11 23:00N 38°44' W 009°06'0 0.0
2018-Jun-11 22:18N 38°44' W 009°06'0 0.0
2018-Jun-11 22:00N 38°44' W 009°06'0 0.0
2018-Jun-11 21:30N 38°44' W 009°06'0 0.0
2018-Jun-11 20:57N 38°44' W 009°06'0 0.0
2018-Jun-11 20:06N 38°44' W 009°06'0 0.0
2018-Jun-11 19:54N 38°44' W 009°06'0 0.0
2018-Jun-11 19:30N 38°44' W 009°06'0 0.7
2018-Jun-11 19:00N 38°43' W 009°07'0 0.0
2018-Jun-11 18:28N 38°43' W 009°07'0 0.0
2018-Jun-11 17:52N 38°43' W 009°07'0 0.0
2018-Jun-11 17:25N 38°43' W 009°07'0 0.0
2018-Jun-11 16:58N 38°43' W 009°07'0 0.0
2018-Jun-11 16:28N 38°43' W 009°07'0 0.0
2018-Jun-11 15:55N 38°43' W 009°07'0 0.0
2018-Jun-11 15:28N 38°43' W 009°07'0 0.0
2018-Jun-11 14:55N 38°43' W 009°07'0 0.0
2018-Jun-11 14:28N 38°43' W 009°07'0 0.0
2018-Jun-11 13:58N 38°43' W 009°07'0 0.0
2018-Jun-11 13:25N 38°43' W 009°07'0 0.0
2018-Jun-11 12:58N 38°43' W 009°07'0 0.0
2018-Jun-11 12:28N 38°43' W 009°07'0 0.0
2018-Jun-11 11:58N 38°43' W 009°07'0 0.0
2018-Jun-11 11:25N 38°43' W 009°07'0 0.0
2018-Jun-11 10:58N 38°43' W 009°07'0 0.0
2018-Jun-11 10:28N 38°43' W 009°07'0 0.0
2018-Jun-11 09:58N 38°43' W 009°07'0 0.0
2018-Jun-11 09:16N 38°43' W 009°07'0 0.0
2018-Jun-11 08:58N 38°43' W 009°07'0 0.0
2018-Jun-11 08:28N 38°43' W 009°07'0 0.0
2018-Jun-11 07:58N 38°43' W 009°07'0 0.0
2018-Jun-11 07:28N 38°43' W 009°07'0 0.0
2018-Jun-11 06:55N 38°43' W 009°07'0 0.0
2018-Jun-11 06:28N 38°43' W 009°07'0 0.0
2018-Jun-11 05:55N 38°43' W 009°07'0 0.0
2018-Jun-11 05:28N 38°43' W 009°07'0 0.0
2018-Jun-11 04:58N 38°43' W 009°07'0 0.0
2018-Jun-11 04:28N 38°43' W 009°07'0 0.0
2018-Jun-11 03:58N 38°43' W 009°07'0 0.0
2018-Jun-11 03:28N 38°43' W 009°07'0 0.0
2018-Jun-11 02:58N 38°43' W 009°07'0 0.0
2018-Jun-11 02:28N 38°43' W 009°07'0 0.1
2018-Jun-11 02:00N 38°43' W 009°07'3 6.9
2018-Jun-11 01:30N 38°41' W 009°10'5 9.4
2018-Jun-11 01:00N 38°41' W 009°16'611.7
2018-Jun-11 00:30N 38°38' W 009°22'714.2
2018-Jun-11 00:00N 38°38' W 009°31'714.7
2018-Jun-10 23:30N 38°40' W 009°40'713.1
2018-Jun-10 23:00N 38°46' W 009°43'714.9
2018-Jun-10 22:30N 38°53' W 009°44'714.8
2018-Jun-10 22:00N 39°01' W 009°44'815.0
2018-Jun-10 21:30N 39°08' W 009°44'715.0
2018-Jun-10 21:00N 39°16' W 009°44'815.1
2018-Jun-10 20:30N 39°23' W 009°44'10614.9
2018-Jun-10 13:25N 41°00' W 008°49'512.6
2018-Jun-10 13:00N 41°05' W 008°46'611.8
2018-Jun-10 12:30N 41°10' W 008°42'2 3.3
2018-Jun-10 11:58N 41°12' W 008°41'0 0.0
2018-Jun-10 11:28N 41°12' W 008°41'0 0.0
2018-Jun-10 10:58N 41°12' W 008°41'0 0.0
2018-Jun-10 10:28N 41°12' W 008°41'0 0.0
2018-Jun-10 09:58N 41°12' W 008°41'0 0.0
2018-Jun-10 09:28N 41°12' W 008°41'0 0.0
2018-Jun-10 08:58N 41°12' W 008°41'0 0.0
2018-Jun-10 08:29N 41°12' W 008°41'0 0.0
2018-Jun-10 08:00N 41°12' W 008°41'0 0.0
2018-Jun-10 07:30N 41°12' W 008°41'0 0.0
2018-Jun-10 07:00N 41°12' W 008°41'0 0.0
2018-Jun-10 06:30N 41°12' W 008°41'0 0.0
2018-Jun-10 06:00N 41°12' W 008°41'0 0.0
2018-Jun-10 05:30N 41°12' W 008°41'0 0.0
2018-Jun-10 04:57N 41°12' W 008°41'0 0.0
2018-Jun-10 04:30N 41°12' W 008°41'0 0.0
2018-Jun-10 04:00N 41°12' W 008°41'0 0.0
2018-Jun-10 03:30N 41°12' W 008°41'0 0.0
2018-Jun-10 03:00N 41°12' W 008°41'0 0.0
2018-Jun-10 02:30N 41°12' W 008°41'0 0.0
2018-Jun-10 02:00N 41°12' W 008°41'0 0.0
2018-Jun-10 01:30N 41°12' W 008°41'0 0.0
2018-Jun-10 01:00N 41°12' W 008°41'0 0.0
2018-Jun-10 00:30N 41°12' W 008°41'0 0.0
2018-Jun-09 23:57N 41°12' W 008°41'0 0.0
2018-Jun-09 23:30N 41°12' W 008°41'0 0.0
2018-Jun-09 23:00N 41°12' W 008°41'0 0.0
2018-Jun-09 22:30N 41°12' W 008°41'0 0.0
2018-Jun-09 22:00N 41°12' W 008°41'0 0.0
2018-Jun-09 21:30N 41°12' W 008°41'0 0.0
2018-Jun-09 21:00N 41°12' W 008°41'0 0.0
2018-Jun-09 20:30N 41°12' W 008°41'0 0.0
2018-Jun-09 20:00N 41°12' W 008°41'1 1.3
2018-Jun-09 19:30N 41°11' W 008°42'2 4.9
2018-Jun-09 19:00N 41°10' W 008°44'1 1.8
2018-Jun-09 18:30N 41°09' W 008°44'4 8.0
2018-Jun-09 18:00N 41°05' W 008°46'99 2.4
2018-Jun-08 01:14N 39°34' W 009°37'310.4
2018-Jun-08 00:57N 39°32' W 009°40'510.5
2018-Jun-08 00:30N 39°29' W 009°43'612.0
2018-Jun-08 00:00N 39°23' W 009°44'611.4
2018-Jun-07 23:30N 39°17' W 009°45'611.4
2018-Jun-07 23:00N 39°11' W 009°46'511.2
2018-Jun-07 22:30N 39°06' W 009°47'510.9
2018-Jun-07 22:00N 39°01' W 009°48'  

Dump ship's entire track history